createdAt,value
2023-02-23T00:04:19.564Z,0.88
2023-02-23T00:09:35.538Z,0.85
2023-02-23T00:14:44.640Z,0.82
2023-02-23T00:19:52.982Z,0.77
2023-02-23T00:25:00.559Z,0.71
2023-02-23T00:30:12.378Z,0.63
2023-02-23T00:35:20.160Z,0.59
2023-02-23T00:40:27.854Z,0.60
2023-02-23T00:45:36.988Z,0.60
2023-02-23T00:50:44.425Z,0.58
2023-02-23T00:55:51.684Z,0.55
2023-02-23T01:01:00.244Z,0.53
2023-02-23T01:06:11.915Z,0.51
2023-02-23T01:11:22.735Z,0.46
2023-02-23T01:16:33.853Z,0.42
2023-02-23T01:21:43.514Z,0.39
2023-02-23T01:26:51.813Z,0.35
2023-02-23T01:31:59.145Z,0.33
2023-02-23T01:37:06.592Z,0.33
2023-02-23T01:42:14.427Z,0.33
2023-02-23T01:47:22.313Z,0.31
2023-02-23T01:52:29.669Z,0.30
2023-02-23T01:57:35.439Z,0.23
2023-02-23T02:02:43.289Z,0.16
2023-02-23T02:07:59.311Z,0.12
2023-02-23T02:13:08.107Z,0.11
2023-02-23T02:18:24.210Z,0.10
2023-02-23T02:23:53.740Z,0.09
2023-02-23T02:29:39.530Z,0.08
2023-02-23T02:35:25.113Z,0.04
2023-02-23T02:40:38.982Z,0.01
2023-02-23T02:45:53.459Z,-0.02
2023-02-23T02:51:09.505Z,-0.04
2023-02-23T02:56:21.261Z,-0.09
2023-02-23T03:01:45.968Z,-0.12
2023-02-23T03:07:17.729Z,-0.14
2023-02-23T03:12:52.584Z,-0.15
2023-02-23T03:18:28.454Z,-0.15
2023-02-23T03:28:36.440Z,-0.18
2023-02-23T03:34:10.569Z,-0.23
2023-02-23T03:39:41.776Z,-0.25
2023-02-23T03:45:10.228Z,-0.28
2023-02-23T03:50:44.892Z,-0.35
2023-02-23T03:56:16.363Z,-0.40
2023-02-23T04:13:06.118Z,-0.43
2023-02-23T04:18:17.705Z,-0.48
2023-02-23T04:23:26.401Z,-0.52
2023-02-23T04:28:35.078Z,-0.56
2023-02-23T04:33:42.422Z,-0.57
2023-02-23T04:38:50.040Z,-0.58
2023-02-23T04:43:57.736Z,-0.62
2023-02-23T04:49:05.208Z,-0.67
2023-02-23T04:54:12.505Z,-0.71
2023-02-23T04:59:20.495Z,-0.71
2023-02-23T05:04:27.862Z,-0.72
2023-02-23T05:09:33.593Z,-0.73
2023-02-23T05:14:40.972Z,-0.76
2023-02-23T05:19:46.456Z,-0.78
2023-02-23T05:29:00.206Z,-0.75
2023-02-23T05:34:08.066Z,-0.81
2023-02-23T05:39:16.171Z,-0.83
2023-02-23T05:44:23.878Z,-0.86
2023-02-23T05:49:31.666Z,-0.87
2023-02-23T05:54:39.643Z,-0.86
2023-02-23T05:59:47.033Z,-0.84
2023-02-23T06:04:56.219Z,-0.84
2023-02-23T06:10:04.422Z,-0.82
2023-02-23T06:15:13.746Z,-0.80
2023-02-23T06:20:22.139Z,-0.79
2023-02-23T06:25:30.475Z,-0.77
2023-02-23T06:30:38.825Z,-0.75
2023-02-23T06:35:47.019Z,-0.74
2023-02-23T06:40:55.221Z,-0.70
2023-02-23T06:46:02.910Z,-0.63
2023-02-23T06:51:11.203Z,-0.55
2023-02-23T06:56:19.911Z,-0.49
2023-02-23T07:01:27.688Z,-0.42
2023-02-23T07:06:35.267Z,-0.39
2023-02-23T07:11:45.010Z,-0.33
2023-02-23T07:16:52.871Z,-0.33
2023-02-23T07:22:00.774Z,-0.28
2023-02-23T07:27:08.398Z,-0.16
2023-02-23T07:32:15.971Z,-0.04
2023-02-23T07:37:23.921Z,0.08
2023-02-23T07:42:32.109Z,0.18
2023-02-23T07:47:40.197Z,0.25
2023-02-23T07:52:48.456Z,0.30
2023-02-23T07:57:58.750Z,0.32
2023-02-23T08:03:06.985Z,0.38
2023-02-23T08:08:15.125Z,0.49
2023-02-23T08:13:23.175Z,0.66
2023-02-23T08:28:13.581Z,1.08
2023-02-23T08:33:21.369Z,1.16
2023-02-23T08:38:29.384Z,1.26
2023-02-23T08:43:39.557Z,1.32
2023-02-23T08:48:47.640Z,1.39
2023-02-23T08:53:57.637Z,1.45
2023-02-23T08:59:06.171Z,1.55
2023-02-23T09:04:13.805Z,1.69
2023-02-23T09:09:22.117Z,1.82
2023-02-23T09:14:30.425Z,1.94
2023-02-23T09:19:38.581Z,2.04
2023-02-23T09:24:46.893Z,2.14
2023-02-23T09:29:54.420Z,2.23
2023-02-23T09:35:01.926Z,2.29
2023-02-23T09:40:15.782Z,2.39
2023-02-23T09:45:40.220Z,2.51
2023-02-23T09:50:52.537Z,2.65
2023-02-23T09:56:01.706Z,2.78
2023-02-23T10:01:35.456Z,2.93
2023-02-23T10:06:47.728Z,3.06
2023-02-23T10:12:02.296Z,3.17
2023-02-23T10:17:22.596Z,3.31
2023-02-23T10:22:34.066Z,3.45
2023-02-23T10:27:46.879Z,3.55
2023-02-23T10:33:01.114Z,3.67
2023-02-23T10:38:14.292Z,3.78
2023-02-23T10:43:23.667Z,3.94
2023-02-23T10:48:39.086Z,4.07
2023-02-23T10:53:47.081Z,4.21
2023-02-23T10:58:56.945Z,4.37
2023-02-23T11:04:18.011Z,4.48
2023-02-23T11:09:44.505Z,4.63
2023-02-23T11:14:57.194Z,4.76
2023-02-23T11:20:09.081Z,4.87
2023-02-23T11:28:31.499Z,5.04
2023-02-23T11:33:42.436Z,5.12
2023-02-23T11:38:58.626Z,5.23
2023-02-23T11:44:06.835Z,5.35
2023-02-23T11:49:21.728Z,5.48
2023-02-23T11:54:33.547Z,5.59
2023-02-23T11:59:48.034Z,5.69
2023-02-23T12:05:08.163Z,5.82
2023-02-23T12:10:25.428Z,5.98
2023-02-23T12:15:37.372Z,6.09
2023-02-23T12:20:50.408Z,6.21
2023-02-23T12:26:04.431Z,6.32
2023-02-23T12:31:24.024Z,6.46
2023-02-23T12:36:42.854Z,6.53
2023-02-23T12:42:01.471Z,6.60
2023-02-23T12:47:17.723Z,6.68
2023-02-23T12:52:31.729Z,6.76
2023-02-23T12:57:45.208Z,6.84
2023-02-23T13:03:10.208Z,6.91
2023-02-23T13:08:28.740Z,7.04
2023-02-23T13:13:43.588Z,7.13
2023-02-23T13:19:01.333Z,7.26
2023-02-23T13:24:14.768Z,7.34
2023-02-23T13:29:32.508Z,7.39
2023-02-23T13:34:47.419Z,7.43
2023-02-23T13:40:03.147Z,7.47
2023-02-23T13:45:33.250Z,7.51
2023-02-23T13:50:53.185Z,7.53
2023-02-23T13:56:07.026Z,7.51
2023-02-23T14:01:19.379Z,7.52
2023-02-23T14:06:30.151Z,7.51
2023-02-23T14:11:49.386Z,7.51
2023-02-23T14:17:34.249Z,7.52
2023-02-23T14:23:18.729Z,7.54
2023-02-23T14:28:39.413Z,7.55
2023-02-23T14:34:02.409Z,7.56
2023-02-23T14:39:17.784Z,7.55
2023-02-23T14:44:31.649Z,7.56
2023-02-23T14:49:44.897Z,7.57
2023-02-23T14:54:52.992Z,7.58
2023-02-23T15:00:05.867Z,7.58
2023-02-23T15:05:23.094Z,7.57
2023-02-23T15:10:34.682Z,7.54
2023-02-23T15:15:47.810Z,7.51
2023-02-23T15:20:55.392Z,7.48
2023-02-23T15:26:24.112Z,7.44
2023-02-23T15:31:35.013Z,7.38
2023-02-23T15:36:47.527Z,7.35
2023-02-23T15:41:55.235Z,7.31
2023-02-23T15:47:06.715Z,7.25
2023-02-23T15:52:19.812Z,7.20
2023-02-23T15:57:34.373Z,7.15
2023-02-23T16:02:45.128Z,7.11
2023-02-23T16:08:06.505Z,7.07
2023-02-23T16:13:16.441Z,7.02
2023-02-23T16:18:33.155Z,7.02
2023-02-23T16:28:55.232Z,7.02
2023-02-23T16:34:01.414Z,6.99
2023-02-23T16:39:11.000Z,6.97
2023-02-23T16:44:20.228Z,6.94
2023-02-23T16:49:29.473Z,6.90
2023-02-23T16:54:34.035Z,6.86
2023-02-23T16:59:38.223Z,6.81
2023-02-23T17:04:48.391Z,6.76
2023-02-23T17:09:52.419Z,6.72
2023-02-23T17:14:57.736Z,6.67
2023-02-23T17:20:01.828Z,6.61
2023-02-23T17:25:07.605Z,6.55
2023-02-23T17:30:14.575Z,6.46
2023-02-23T17:35:19.190Z,6.37
2023-02-23T17:40:28.467Z,6.33
2023-02-23T17:45:33.360Z,6.31
2023-02-23T17:50:37.531Z,6.25
2023-02-23T17:55:42.342Z,6.15
2023-02-23T18:00:48.120Z,6.09
2023-02-23T18:05:52.652Z,5.97
2023-02-23T18:10:58.127Z,5.83
2023-02-23T18:16:05.463Z,5.65
2023-02-23T18:21:13.499Z,5.55
2023-02-23T18:26:20.406Z,5.46
2023-02-23T18:31:27.898Z,5.44
2023-02-23T18:36:35.556Z,5.41
2023-02-23T18:41:41.532Z,5.33
2023-02-23T18:46:46.743Z,5.27
2023-02-23T18:51:51.252Z,5.22
2023-02-23T18:56:55.651Z,5.13
2023-02-23T19:02:00.154Z,5.05
2023-02-23T19:07:05.341Z,4.98
2023-02-23T19:12:11.571Z,4.91
2023-02-23T19:17:16.057Z,4.83
2023-02-23T19:22:20.730Z,4.75
2023-02-23T19:27:25.026Z,4.66
2023-02-23T19:32:29.955Z,4.61
2023-02-23T19:37:34.304Z,4.61
2023-02-23T19:42:42.603Z,4.59
2023-02-23T19:47:47.509Z,4.63
2023-02-23T19:52:51.361Z,4.69
2023-02-23T19:57:55.549Z,4.74
2023-02-23T20:03:05.718Z,4.79
2023-02-23T20:08:10.186Z,4.84
2023-02-23T20:13:14.092Z,4.81
2023-02-23T20:18:20.511Z,4.73
2023-02-23T20:29:11.365Z,4.68
2023-02-23T20:34:22.199Z,4.63
2023-02-23T20:39:32.898Z,4.60
2023-02-23T20:44:40.589Z,4.52
2023-02-23T20:49:48.163Z,4.48
2023-02-23T20:54:55.415Z,4.51
2023-02-23T21:00:29.006Z,4.49
2023-02-23T21:05:42.365Z,4.41
2023-02-23T21:10:50.832Z,4.41
2023-02-23T21:16:01.686Z,4.45
2023-02-23T21:21:10.993Z,4.48
2023-02-23T21:26:21.931Z,4.43
2023-02-23T21:31:30.266Z,4.42
2023-02-23T21:36:38.902Z,4.44
2023-02-23T21:41:46.777Z,4.46
2023-02-23T21:46:54.488Z,4.46
2023-02-23T21:52:02.416Z,4.33
2023-02-23T21:57:11.250Z,4.21
2023-02-23T22:02:20.214Z,4.11
2023-02-23T22:07:29.507Z,4.10
2023-02-23T22:12:37.392Z,4.18
2023-02-23T22:17:45.722Z,4.28
2023-02-23T22:22:53.598Z,4.36
2023-02-23T22:28:02.187Z,4.40
2023-02-23T22:33:10.283Z,4.45
2023-02-23T22:38:19.904Z,4.46
2023-02-23T22:43:27.510Z,4.48
2023-02-23T22:48:35.410Z,4.54
2023-02-23T22:53:43.656Z,4.57
2023-02-23T22:58:53.820Z,4.55
2023-02-23T23:04:06.683Z,4.55
2023-02-23T23:09:16.813Z,4.51
2023-02-23T23:14:24.791Z,4.47
2023-02-23T23:19:39.219Z,4.44
2023-02-23T23:24:49.286Z,4.46
2023-02-23T23:29:59.641Z,4.44
2023-02-23T23:35:11.714Z,4.34
2023-02-23T23:40:24.799Z,4.29
2023-02-23T23:45:38.418Z,4.29
2023-02-23T23:50:46.261Z,4.27
2023-02-23T23:55:53.943Z,4.24
